TAM3908 SBSP-SBRJ
Flight info
| Callsign | TAM3908 |
|---|---|
| Flight time | N/A |
| Altitude | 25000 |
| Route | NIBRU UZ171 KEVUN |
| Aircraft | A320/M-SDE3FGHIRWY/LB1 |
Departure
| Time | 2026-05-06 11:49 |
|---|---|
| Airport | Congonhas–Deputado Freitas Nobre Airport (SBSP) |
Arrival
| Time | N/A |
|---|---|
| Airport | Santos Dumont Airport (SBRJ) |
| Time | Latitude | Longitude | Altitude | Speed | Heading |
|---|---|---|---|---|---|
| 2026-05-06 11:34 | -23.62451 | -46.66008 | 2601 ft | 0 kts | 237° |
| 2026-05-06 11:37 | -23.62451 | -46.66007 | 2600 ft | 2 kts | 237° |
| 2026-05-06 11:38 | -23.62450 | -46.66005 | 2600 ft | 0 kts | 237° |
| 2026-05-06 11:38 | -23.62449 | -46.66005 | 2600 ft | 0 kts | 237° |
| 2026-05-06 11:39 | -23.62448 | -46.66003 | 2602 ft | 0 kts | 237° |
| 2026-05-06 11:39 | -23.62449 | -46.66003 | 2600 ft | 0 kts | 237° |
| 2026-05-06 11:39 | -23.62451 | -46.66008 | 2600 ft | 6 kts | 237° |
| 2026-05-06 11:43 | -23.62444 | -46.65996 | 2600 ft | 3 kts | 237° |
| 2026-05-06 11:44 | -23.62438 | -46.65961 | 2600 ft | 0 kts | 328° |
| 2026-05-06 11:46 | -23.62436 | -46.65962 | 2600 ft | 2 kts | 328° |
| 2026-05-06 11:46 | -23.62400 | -46.65984 | 2600 ft | 8 kts | 332° |
| 2026-05-06 11:46 | -23.62341 | -46.66005 | 2600 ft | 10 kts | 353° |
| 2026-05-06 11:46 | -23.62266 | -46.66029 | 2600 ft | 13 kts | 332° |
| 2026-05-06 11:47 | -23.62182 | -46.66081 | 2599 ft | 15 kts | 328° |
| 2026-05-06 11:47 | -23.62122 | -46.66124 | 2593 ft | 0 kts | 327° |
| 2026-05-06 11:48 | -23.62112 | -46.66130 | 2589 ft | 4 kts | 332° |
| 2026-05-06 11:48 | -23.62051 | -46.66115 | 2595 ft | 14 kts | 52° |
| 2026-05-06 11:48 | -23.62090 | -46.66048 | 2597 ft | 3 kts | 144° |
| 2026-05-06 11:49 | -23.62095 | -46.66044 | 2597 ft | 0 kts | 144° |
| 2026-05-06 11:49 | -23.62352 | -46.65863 | 2601 ft | 91 kts | 148° |
| 2026-05-06 11:49 | -23.63112 | -46.65335 | 2619 ft | 164 kts | 148° |
| 2026-05-06 11:49 | -23.64164 | -46.64643 | 3275 ft | 183 kts | 147° |
| 2026-05-06 11:50 | -23.65224 | -46.63804 | 3781 ft | 197 kts | 129° |
| 2026-05-06 11:50 | -23.66004 | -46.62476 | 4078 ft | 220 kts | 116° |
| 2026-05-06 11:50 | -23.66706 | -46.60888 | 4475 ft | 245 kts | 113° |
| 2026-05-06 11:50 | -23.67453 | -46.59127 | 5095 ft | 263 kts | 114° |
| 2026-05-06 11:51 | -23.68247 | -46.57315 | 5990 ft | 267 kts | 115° |
| 2026-05-06 11:51 | -23.69082 | -46.55488 | 6924 ft | 271 kts | 116° |
| 2026-05-06 11:51 | -23.69952 | -46.53648 | 7790 ft | 275 kts | 117° |
| 2026-05-06 11:51 | -23.70850 | -46.51791 | 8650 ft | 279 kts | 117° |
| 2026-05-06 11:52 | -23.71576 | -46.49823 | 9490 ft | 283 kts | 103° |
| 2026-05-06 11:52 | -23.71810 | -46.47688 | 10307 ft | 286 kts | 88° |
| 2026-05-06 11:52 | -23.71585 | -46.45473 | 10749 ft | 305 kts | 82° |
| 2026-05-06 11:52 | -23.71254 | -46.43118 | 11153 ft | 320 kts | 81° |
| 2026-05-06 11:53 | -23.70900 | -46.40698 | 11806 ft | 326 kts | 81° |
| 2026-05-06 11:53 | -23.70538 | -46.38238 | 12495 ft | 331 kts | 82° |
| 2026-05-06 11:53 | -23.70174 | -46.35740 | 13186 ft | 335 kts | 82° |
| 2026-05-06 11:53 | -23.69808 | -46.33220 | 13867 ft | 339 kts | 82° |
| 2026-05-06 11:54 | -23.69437 | -46.30657 | 14474 ft | 344 kts | 82° |
| 2026-05-06 11:54 | -23.69069 | -46.28103 | 15056 ft | 348 kts | 82° |
| 2026-05-06 11:54 | -23.68691 | -46.25480 | 15641 ft | 352 kts | 82° |
| 2026-05-06 11:54 | -23.68311 | -46.22823 | 16201 ft | 357 kts | 82° |
| 2026-05-06 11:55 | -23.67927 | -46.20130 | 16766 ft | 362 kts | 82° |
| 2026-05-06 11:55 | -23.67538 | -46.17399 | 17345 ft | 366 kts | 82° |
| 2026-05-06 11:55 | -23.67140 | -46.14602 | 17920 ft | 371 kts | 82° |
| 2026-05-06 11:55 | -23.66741 | -46.11807 | 18484 ft | 375 kts | 82° |
| 2026-05-06 11:56 | -23.66337 | -46.08978 | 18995 ft | 380 kts | 82° |
| 2026-05-06 11:56 | -23.65926 | -46.06116 | 19522 ft | 383 kts | 82° |
| 2026-05-06 11:56 | -23.65518 | -46.03273 | 20047 ft | 387 kts | 82° |
| 2026-05-06 11:56 | -23.65098 | -46.00357 | 20586 ft | 391 kts | 82° |
| 2026-05-06 11:57 | -23.64675 | -45.97419 | 21121 ft | 394 kts | 82° |
| 2026-05-06 11:57 | -23.64247 | -45.94450 | 21676 ft | 398 kts | 82° |
| 2026-05-06 11:57 | -23.63815 | -45.91458 | 22211 ft | 402 kts | 82° |
| 2026-05-06 11:57 | -23.63377 | -45.88436 | 22744 ft | 405 kts | 82° |
| 2026-05-06 11:58 | -23.62937 | -45.85385 | 23286 ft | 409 kts | 82° |
| 2026-05-06 11:58 | -23.62492 | -45.82303 | 23830 ft | 413 kts | 82° |
| 2026-05-06 11:58 | -23.62040 | -45.79194 | 24290 ft | 417 kts | 82° |
| 2026-05-06 11:58 | -23.61585 | -45.76060 | 24753 ft | 420 kts | 82° |
| 2026-05-06 11:59 | -23.61127 | -45.72900 | 25111 ft | 423 kts | 83° |
| 2026-05-06 11:59 | -23.60666 | -45.69737 | 25209 ft | 421 kts | 83° |
| 2026-05-06 11:59 | -23.60212 | -45.66639 | 25230 ft | 409 kts | 83° |
| 2026-05-06 11:59 | -23.59764 | -45.63600 | 25228 ft | 405 kts | 83° |
| 2026-05-06 12:00 | -23.59316 | -45.60572 | 25228 ft | 404 kts | 83° |
| 2026-05-06 12:00 | -23.58870 | -45.57545 | 25229 ft | 404 kts | 83° |
| 2026-05-06 12:00 | -23.58426 | -45.54524 | 25231 ft | 404 kts | 83° |
| 2026-05-06 12:00 | -23.57982 | -45.51503 | 25232 ft | 404 kts | 82° |
| 2026-05-06 12:01 | -23.57541 | -45.48485 | 25230 ft | 403 kts | 83° |
| 2026-05-06 12:01 | -23.57074 | -45.45473 | 25231 ft | 403 kts | 81° |
| 2026-05-06 12:01 | -23.56508 | -45.42473 | 25231 ft | 404 kts | 79° |
| 2026-05-06 12:01 | -23.55871 | -45.39497 | 25234 ft | 404 kts | 78° |
| 2026-05-06 12:02 | -23.55199 | -45.36520 | 25240 ft | 404 kts | 77° |
| 2026-05-06 12:02 | -23.54521 | -45.33546 | 25242 ft | 404 kts | 77° |
| 2026-05-06 12:02 | -23.53857 | -45.30571 | 25242 ft | 404 kts | 78° |
| 2026-05-06 12:02 | -23.53208 | -45.27589 | 25245 ft | 404 kts | 78° |
| 2026-05-06 12:03 | -23.52573 | -45.24613 | 25243 ft | 404 kts | 78° |
| 2026-05-06 12:03 | -23.51941 | -45.21628 | 25242 ft | 404 kts | 78° |
| 2026-05-06 12:03 | -23.51312 | -45.18646 | 25243 ft | 404 kts | 78° |
| 2026-05-06 12:03 | -23.50682 | -45.15664 | 25241 ft | 404 kts | 78° |
| 2026-05-06 12:04 | -23.50052 | -45.12682 | 25240 ft | 404 kts | 78° |
| 2026-05-06 12:04 | -23.49420 | -45.09705 | 25239 ft | 404 kts | 78° |
| 2026-05-06 12:04 | -23.48782 | -45.06727 | 25239 ft | 404 kts | 78° |
| 2026-05-06 12:04 | -23.48138 | -45.03747 | 25237 ft | 404 kts | 78° |
| 2026-05-06 12:05 | -23.47493 | -45.00775 | 25237 ft | 404 kts | 78° |
| 2026-05-06 12:05 | -23.46851 | -44.97799 | 25237 ft | 404 kts | 78° |
| 2026-05-06 12:05 | -23.46215 | -44.94826 | 25240 ft | 403 kts | 78° |
| 2026-05-06 12:05 | -23.45575 | -44.91852 | 25234 ft | 403 kts | 78° |
| 2026-05-06 12:06 | -23.44915 | -44.88848 | 25219 ft | 412 kts | 78° |
| 2026-05-06 12:06 | -23.44240 | -44.85823 | 24860 ft | 411 kts | 77° |
| 2026-05-06 12:06 | -23.43573 | -44.82848 | 24460 ft | 408 kts | 77° |
| 2026-05-06 12:06 | -23.42902 | -44.79857 | 24096 ft | 405 kts | 77° |
| 2026-05-06 12:07 | -23.42237 | -44.76884 | 23724 ft | 402 kts | 77° |
| 2026-05-06 12:07 | -23.41580 | -44.73942 | 23288 ft | 399 kts | 77° |
| 2026-05-06 12:07 | -23.40927 | -44.71018 | 22840 ft | 396 kts | 77° |
| 2026-05-06 12:07 | -23.40278 | -44.68112 | 22389 ft | 393 kts | 77° |
| 2026-05-06 12:08 | -23.39640 | -44.65248 | 21774 ft | 387 kts | 77° |
| 2026-05-06 12:08 | -23.39006 | -44.62418 | 20933 ft | 382 kts | 77° |
| 2026-05-06 12:08 | -23.38380 | -44.59628 | 20117 ft | 378 kts | 77° |
| 2026-05-06 12:08 | -23.37764 | -44.56883 | 19572 ft | 366 kts | 77° |
| 2026-05-06 12:09 | -23.37172 | -44.54243 | 19139 ft | 353 kts | 77° |
| 2026-05-06 12:09 | -23.36596 | -44.51675 | 18718 ft | 348 kts | 77° |
| 2026-05-06 12:09 | -23.36021 | -44.49111 | 18262 ft | 349 kts | 77° |
| 2026-05-06 12:09 | -23.35444 | -44.46551 | 17828 ft | 348 kts | 77° |
| 2026-05-06 12:10 | -23.34871 | -44.44002 | 17398 ft | 346 kts | 77° |
| 2026-05-06 12:10 | -23.34167 | -44.41513 | 16984 ft | 344 kts | 68° |
| 2026-05-06 12:10 | -23.33164 | -44.39157 | 16583 ft | 342 kts | 66° |
| 2026-05-06 12:10 | -23.32156 | -44.36818 | 16189 ft | 340 kts | 66° |
| 2026-05-06 12:11 | -23.31155 | -44.34492 | 15788 ft | 338 kts | 66° |
| 2026-05-06 12:11 | -23.30161 | -44.32181 | 15394 ft | 336 kts | 65° |
| 2026-05-06 12:11 | -23.29175 | -44.29885 | 15003 ft | 335 kts | 66° |
| 2026-05-06 12:11 | -23.28192 | -44.27598 | 14614 ft | 333 kts | 65° |
| 2026-05-06 12:12 | -23.27213 | -44.25328 | 14230 ft | 331 kts | 65° |
| 2026-05-06 12:12 | -23.26240 | -44.23066 | 13813 ft | 329 kts | 65° |
| 2026-05-06 12:12 | -23.25274 | -44.20823 | 13411 ft | 326 kts | 65° |
| 2026-05-06 12:12 | -23.24317 | -44.18604 | 13026 ft | 323 kts | 65° |
| 2026-05-06 12:13 | -23.23368 | -44.16406 | 12631 ft | 320 kts | 65° |
| 2026-05-06 12:13 | -23.22428 | -44.14226 | 12261 ft | 317 kts | 65° |
| 2026-05-06 12:13 | -23.21496 | -44.12062 | 11888 ft | 315 kts | 65° |
| 2026-05-06 12:13 | -23.20571 | -44.09918 | 11510 ft | 312 kts | 65° |
| 2026-05-06 12:14 | -23.19651 | -44.07788 | 11142 ft | 310 kts | 65° |
| 2026-05-06 12:14 | -23.18720 | -44.05712 | 10990 ft | 300 kts | 64° |
| 2026-05-06 12:14 | -23.17793 | -44.03698 | 10846 ft | 296 kts | 64° |
| 2026-05-06 12:14 | -23.16871 | -44.01710 | 10694 ft | 294 kts | 64° |
| 2026-05-06 12:15 | -23.15950 | -43.99732 | 10548 ft | 293 kts | 64° |
| 2026-05-06 12:15 | -23.15052 | -43.97749 | 10377 ft | 292 kts | 65° |
| 2026-05-06 12:15 | -23.14190 | -43.95755 | 10228 ft | 291 kts | 66° |
| 2026-05-06 12:15 | -23.13348 | -43.93766 | 10066 ft | 288 kts | 66° |
| 2026-05-06 12:16 | -23.12515 | -43.91792 | 9907 ft | 287 kts | 66° |
| 2026-05-06 12:16 | -23.11685 | -43.89824 | 9755 ft | 287 kts | 66° |
| 2026-05-06 12:16 | -23.10863 | -43.87885 | 9595 ft | 286 kts | 66° |
| 2026-05-06 12:16 | -23.10016 | -43.85902 | 9457 ft | 285 kts | 66° |
| 2026-05-06 12:17 | -23.09194 | -43.83981 | 9308 ft | 284 kts | 66° |
| 2026-05-06 12:17 | -23.08361 | -43.82035 | 9155 ft | 284 kts | 66° |
| 2026-05-06 12:17 | -23.07527 | -43.80088 | 8855 ft | 283 kts | 66° |
| 2026-05-06 12:17 | -23.06699 | -43.78157 | 8677 ft | 282 kts | 66° |
| 2026-05-06 12:18 | -23.05874 | -43.76233 | 8528 ft | 281 kts | 66° |
| 2026-05-06 12:18 | -23.05050 | -43.74316 | 8379 ft | 280 kts | 66° |
| 2026-05-06 12:18 | -23.04225 | -43.72399 | 8232 ft | 280 kts | 66° |
| 2026-05-06 12:18 | -23.03402 | -43.70490 | 8089 ft | 279 kts | 66° |
| 2026-05-06 12:19 | -23.02580 | -43.68584 | 7861 ft | 278 kts | 65° |
| 2026-05-06 12:19 | -23.01758 | -43.66693 | 7596 ft | 276 kts | 65° |
| 2026-05-06 12:19 | -23.00938 | -43.64816 | 7348 ft | 275 kts | 65° |
| 2026-05-06 12:19 | -23.00118 | -43.62948 | 7101 ft | 273 kts | 65° |
| 2026-05-06 12:20 | -22.99305 | -43.61094 | 6907 ft | 271 kts | 65° |
| 2026-05-06 12:20 | -22.98493 | -43.59245 | 6755 ft | 271 kts | 65° |
| 2026-05-06 12:20 | -22.97680 | -43.57399 | 6592 ft | 271 kts | 65° |
| 2026-05-06 12:20 | -22.96871 | -43.55562 | 6417 ft | 266 kts | 65° |
| 2026-05-06 12:21 | -22.96346 | -43.54375 | 6300 ft | 261 kts | 65° |
| 2026-05-06 12:21 | -22.95571 | -43.52617 | 6132 ft | 255 kts | 65° |
| 2026-05-06 12:21 | -22.94814 | -43.50900 | 5956 ft | 250 kts | 65° |
| 2026-05-06 12:21 | -22.94084 | -43.49214 | 5784 ft | 244 kts | 66° |
| 2026-05-06 12:22 | -22.93387 | -43.47567 | 5615 ft | 237 kts | 66° |
| 2026-05-06 12:22 | -22.92706 | -43.45948 | 5433 ft | 235 kts | 66° |
| 2026-05-06 12:22 | -22.92028 | -43.44336 | 5139 ft | 235 kts | 66° |
| 2026-05-06 12:22 | -22.91350 | -43.42724 | 4852 ft | 235 kts | 66° |
| 2026-05-06 12:23 | -22.90673 | -43.41118 | 4554 ft | 233 kts | 66° |
| 2026-05-06 12:23 | -22.90006 | -43.39541 | 4372 ft | 225 kts | 66° |
| 2026-05-06 12:23 | -22.89366 | -43.38034 | 4242 ft | 215 kts | 66° |
| 2026-05-06 12:23 | -22.88756 | -43.36595 | 4130 ft | 205 kts | 66° |
| 2026-05-06 12:24 | -22.88380 | -43.35168 | 4078 ft | 190 kts | 83° |
| 2026-05-06 12:24 | -22.88409 | -43.33748 | 3800 ft | 189 kts | 95° |
| 2026-05-06 12:24 | -22.88545 | -43.32335 | 3539 ft | 187 kts | 95° |
| 2026-05-06 12:24 | -22.88677 | -43.30938 | 3300 ft | 186 kts | 95° |
| 2026-05-06 12:25 | -22.88807 | -43.29555 | 3063 ft | 183 kts | 95° |